Time;durP1;ratioP1;P1;durP2;ratioP2;P2;SDS_P1;SDS_P2;PMS_P1;PMS_P2;Temp;Humidity;BMP_temperature;BMP_pressure;BME280_temperature;BME280_humidity;BME280_pressure;Samples;Min_cycle;Max_cycle;Signal;HPM_P1;HPM_P2
2022/03/24 00:01:29;;;;;;;71.95;42.42;;;;;;;3.67;96.42;102932.09;5049112;28;20166;-78
2022/03/24 00:03:55;;;;;;;67.05;40.35;;;;;;;3.67;96.41;102933.81;5043956;28;20063;-78
2022/03/24 00:06:20;;;;;;;75.90;41.88;;;;;;;3.61;95.67;102934.03;5032155;28;20044;-77
2022/03/24 00:08:46;;;;;;;70.82;40.83;;;;;;;3.59;96.10;102938.41;5034799;28;20119;-76
2022/03/24 00:11:11;;;;;;;69.43;40.63;;;;;;;3.56;96.33;102933.31;5049005;28;20070;-78
2022/03/24 00:13:37;;;;;;;71.50;41.40;;;;;;;3.53;96.09;102933.44;5051558;28;20627;-79
2022/03/24 00:16:03;;;;;;;68.93;41.05;;;;;;;3.51;95.63;102934.31;5032936;28;20393;-76
2022/03/24 00:18:31;;;;;;;67.57;40.47;;;;;;;3.49;95.78;102930.91;5069002;28;20037;-77
2022/03/24 00:20:57;;;;;;;71.13;42.30;;;;;;;3.47;96.02;102924.94;5068611;28;20098;-77
2022/03/24 00:23:23;;;;;;;71.30;41.90;;;;;;;3.44;96.12;102927.59;5026146;28;20040;-76
2022/03/24 00:25:50;;;;;;;69.63;41.00;;;;;;;3.40;96.38;102930.34;5044866;28;20037;-77
2022/03/24 00:28:15;;;;;;;69.88;40.28;;;;;;;3.36;97.30;102928.75;5042320;28;20032;-76
2022/03/24 00:30:44;;;;;;;69.97;41.55;;;;;;;3.33;97.29;102921.88;5039196;28;20029;-76
2022/03/24 00:33:10;;;;;;;68.68;42.45;;;;;;;3.30;97.49;102930.63;5050684;28;20068;-77
2022/03/24 00:35:37;;;;;;;68.50;42.38;;;;;;;3.22;97.48;102922.22;5046598;28;20071;-76
2022/03/24 00:38:03;;;;;;;74.82;42.33;;;;;;;3.20;97.32;102920.56;5068487;28;20046;-75
2022/03/24 00:40:28;;;;;;;71.82;42.40;;;;;;;3.19;98.49;102926.66;5051379;28;20401;-75
2022/03/24 00:42:54;;;;;;;76.30;43.33;;;;;;;3.17;100.00;102924.09;5030785;28;20103;-77
2022/03/24 00:45:20;;;;;;;75.03;44.00;;;;;;;3.15;100.00;102919.88;5067463;28;20063;-78
2022/03/24 00:47:46;;;;;;;72.20;42.78;;;;;;;3.13;100.00;102925.09;5049100;28;20039;-76
2022/03/24 00:50:13;;;;;;;84.50;45.03;;;;;;;3.07;100.00;102914.88;5026668;28;20071;-77
2022/03/24 00:52:43;;;;;;;72.22;41.85;;;;;;;2.97;100.00;102906.50;5068260;28;20117;-77
2022/03/24 00:55:15;;;;;;;77.07;43.22;;;;;;;2.91;100.00;102907.53;5043674;28;20045;-76
2022/03/24 00:57:42;;;;;;;77.00;44.03;;;;;;;2.90;100.00;102905.84;5052442;28;20116;-75
2022/03/24 01:00:12;;;;;;;81.72;45.80;;;;;;;2.91;100.00;102898.91;5051844;28;20036;-79
2022/03/24 01:02:37;;;;;;;83.90;45.08;;;;;;;2.83;100.00;102903.50;5070370;28;20042;-78
2022/03/24 01:05:08;;;;;;;80.35;43.88;;;;;;;2.75;100.00;102902.84;5064075;28;20099;-76
2022/03/24 01:07:34;;;;;;;79.55;44.92;;;;;;;2.67;100.00;102901.28;5046555;28;20060;-77
2022/03/24 01:10:00;;;;;;;76.63;44.08;;;;;;;2.63;100.00;102891.91;5072091;28;20051;-78
2022/03/24 01:12:25;;;;;;;74.95;43.20;;;;;;;2.58;100.00;102893.81;5048575;28;20040;-76
2022/03/24 01:14:51;;;;;;;78.10;44.03;;;;;;;2.51;100.00;102889.69;5038845;28;20127;-78
2022/03/24 01:17:17;;;;;;;74.95;43.83;;;;;;;2.48;100.00;102889.75;5046015;28;20068;-78
2022/03/24 01:19:44;;;;;;;73.65;41.25;;;;;;;2.44;100.00;102894.16;5044230;28;20037;-78
2022/03/24 01:22:10;;;;;;;78.15;45.17;;;;;;;2.39;100.00;102897.75;5046133;28;20561;-76
2022/03/24 01:24:38;;;;;;;81.97;45.90;;;;;;;2.28;100.00;102893.72;5040891;28;20033;-77
2022/03/24 01:27:05;;;;;;;78.28;45.92;;;;;;;2.16;100.00;102899.22;5050632;28;20040;-78
2022/03/24 01:29:31;;;;;;;76.78;44.45;;;;;;;2.06;100.00;102898.59;5059317;28;20035;-76
2022/03/24 01:31:57;;;;;;;81.20;44.90;;;;;;;2.06;100.00;102902.94;5079138;28;20043;-78
2022/03/24 01:34:24;;;;;;;80.80;44.20;;;;;;;2.02;100.00;102898.72;5050181;28;20048;-75
2022/03/24 01:36:52;;;;;;;78.38;44.25;;;;;;;1.98;100.00;102897.06;5034195;28;20086;-78
2022/03/24 01:39:18;;;;;;;79.47;45.35;;;;;;;1.92;100.00;102896.34;5054766;28;20490;-78
2022/03/24 01:41:45;;;;;;;82.18;45.88;;;;;;;1.93;100.00;102898.03;5052478;28;20032;-76
2022/03/24 01:44:13;;;;;;;77.70;45.38;;;;;;;1.92;100.00;102898.06;5034641;28;20048;-77
2022/03/24 01:46:54;;;;;;;83.43;46.55;;;;;;;1.89;100.00;102898.16;5037986;28;20075;-78
2022/03/24 01:49:24;;;;;;;76.28;45.08;;;;;;;1.85;100.00;102894.81;5053275;28;20920;-74
2022/03/24 01:51:50;;;;;;;86.57;45.97;;;;;;;1.82;100.00;102889.69;5062557;28;20036;-78
2022/03/24 01:54:16;;;;;;;81.57;46.28;;;;;;;1.83;100.00;102894.00;5035638;28;20036;-75
2022/03/24 01:56:43;;;;;;;84.43;45.38;;;;;;;1.79;100.00;102888.91;5023596;28;20068;-76
2022/03/24 01:59:13;;;;;;;88.97;45.90;;;;;;;1.75;100.00;102889.00;5048034;28;20075;-78
2022/03/24 02:01:39;;;;;;;85.55;46.92;;;;;;;1.73;100.00;102888.19;5033440;28;20132;-77
2022/03/24 02:04:05;;;;;;;85.35;46.13;;;;;;;1.72;100.00;102883.88;5043200;28;20128;-76
2022/03/24 02:06:35;;;;;;;81.97;46.30;;;;;;;1.77;100.00;102883.75;5064017;28;20044;-75
2022/03/24 02:09:03;;;;;;;81.45;46.08;;;;;;;1.78;100.00;102885.47;5034803;28;20092;-76
2022/03/24 02:11:30;;;;;;;86.40;48.00;;;;;;;1.79;100.00;102888.91;5052846;28;20028;-78
2022/03/24 02:13:57;;;;;;;87.75;46.58;;;;;;;1.73;100.00;102880.44;5036601;28;20033;-76
2022/03/24 02:16:27;;;;;;;84.60;46.40;;;;;;;1.68;100.00;102884.00;5035913;28;20040;-78
2022/03/24 02:18:58;;;;;;;83.20;44.37;;;;;;;1.65;100.00;102884.06;5049169;28;20036;-78
2022/03/24 02:21:24;;;;;;;79.50;45.63;;;;;;;1.64;100.00;102884.94;5061093;28;20063;-77
2022/03/24 02:23:49;;;;;;;81.63;45.70;;;;;;;1.60;100.00;102880.75;5033967;28;20040;-76
2022/03/24 02:26:17;;;;;;;84.85;48.42;;;;;;;1.60;100.00;102885.91;5049787;28;20040;-77
2022/03/24 02:28:45;;;;;;;91.28;49.85;;;;;;;1.56;100.00;102879.94;5048939;28;20824;-77
2022/03/24 02:31:11;;;;;;;87.53;48.80;;;;;;;1.54;100.00;102873.97;5019908;28;20032;-77
2022/03/24 02:33:37;;;;;;;89.93;48.20;;;;;;;1.54;100.00;102873.97;5051167;28;20120;-77
2022/03/24 02:36:04;;;;;;;89.68;48.35;;;;;;;1.54;100.00;102882.59;5068694;28;20115;-74
2022/03/24 02:38:32;;;;;;;84.57;48.58;;;;;;;1.60;100.00;102881.63;5026970;28;20040;-77
2022/03/24 02:40:57;;;;;;;94.65;48.42;;;;;;;1.59;100.00;102879.06;5060086;28;20051;-77
2022/03/24 02:43:24;;;;;;;85.80;47.45;;;;;;;1.53;100.00;102872.28;5050207;28;20764;-75
2022/03/24 02:45:50;;;;;;;90.40;48.75;;;;;;;1.43;100.00;102866.47;5046177;28;20097;-76
2022/03/24 02:48:16;;;;;;;87.38;49.03;;;;;;;1.43;100.00;102866.47;5043262;28;20040;-76
2022/03/24 02:50:42;;;;;;;88.15;48.85;;;;;;;1.46;100.00;102874.16;5044054;28;20046;-76
2022/03/24 02:53:09;;;;;;;91.35;48.67;;;;;;;1.42;100.00;102876.84;5060371;28;20082;-77
2022/03/24 02:55:35;;;;;;;89.90;50.78;;;;;;;1.40;100.00;102871.72;5032762;28;20043;-76
2022/03/24 02:58:01;;;;;;;93.88;50.55;;;;;;;1.36;100.00;102872.69;5025584;28;20032;-76
2022/03/24 03:00:27;;;;;;;89.07;48.63;;;;;;;1.32;100.00;102873.63;5046685;28;20036;-76
2022/03/24 03:02:53;;;;;;;87.97;49.50;;;;;;;1.36;100.00;102864.91;5037264;28;20039;-76
2022/03/24 03:05:21;;;;;;;90.57;49.40;;;;;;;1.30;100.00;102870.19;5024917;28;20049;-75
2022/03/24 03:07:47;;;;;;;93.93;51.10;;;;;;;1.32;100.00;102866.72;5026899;28;20093;-75
2022/03/24 03:10:14;;;;;;;96.70;51.72;;;;;;;1.31;100.00;102872.75;5047848;28;20056;-76
2022/03/24 03:12:44;;;;;;;91.90;50.60;;;;;;;1.31;100.00;102869.34;5047998;28;20518;-76
2022/03/24 03:15:12;;;;;;;93.28;49.78;;;;;;;1.30;100.00;102865.03;5066879;28;20040;-76
2022/03/24 03:17:37;;;;;;;93.30;50.20;;;;;;;1.28;100.00;102861.63;5031824;28;20041;-76
2022/03/24 03:20:07;;;;;;;92.38;49.35;;;;;;;1.28;100.00;102864.22;5025589;28;20035;-76
2022/03/24 03:22:32;;;;;;;91.45;50.88;;;;;;;1.27;100.00;102876.31;5032957;28;20037;-75
2022/03/24 03:24:59;;;;;;;96.28;50.70;;;;;;;1.23;100.00;102860.91;5027045;28;20037;-76
2022/03/24 03:27:27;;;;;;;97.30;50.72;;;;;;;1.24;100.00;102863.44;5050232;28;20123;-76
2022/03/24 03:29:53;;;;;;;91.95;51.03;;;;;;;1.23;100.00;102864.34;5026052;28;20090;-76
2022/03/24 03:32:21;;;;;;;95.32;51.88;;;;;;;1.18;100.00;102866.16;5049850;28;20044;-75
2022/03/24 03:34:48;;;;;;;101.70;51.45;;;;;;;1.18;100.00;102866.16;5029043;28;20090;-76
2022/03/24 03:37:14;;;;;;;91.00;49.35;;;;;;;1.20;100.00;102866.13;5030591;28;20039;-76
2022/03/24 03:39:40;;;;;;;92.78;50.72;;;;;;;1.18;100.00;102863.56;5031794;28;20052;-78
2022/03/24 03:42:07;;;;;;;92.78;49.38;;;;;;;1.20;100.00;102866.13;5040053;28;20119;-76
2022/03/24 03:44:34;;;;;;;95.30;51.85;;;;;;;1.18;100.00;102866.16;5053698;28;20042;-76
2022/03/24 03:47:01;;;;;;;91.05;49.85;;;;;;;1.20;100.00;102866.13;5049536;28;20045;-76
2022/03/24 03:49:27;;;;;;;97.38;52.85;;;;;;;1.12;100.00;102859.38;5049143;28;20036;-76
2022/03/24 03:51:53;;;;;;;94.00;52.53;;;;;;;1.09;100.00;102867.22;5066275;28;20165;-76
2022/03/24 03:54:20;;;;;;;93.80;50.47;;;;;;;1.07;100.00;102870.72;5065328;28;20036;-76
2022/03/24 03:56:46;;;;;;;98.35;51.33;;;;;;;1.02;100.00;102868.25;5030867;28;20036;-77
2022/03/24 03:59:11;;;;;;;93.00;51.70;;;;;;;1.02;100.00;102862.19;5047736;28;20041;-76
2022/03/24 04:01:37;;;;;;;96.50;52.97;;;;;;;1.00;100.00;102863.97;5027790;28;20118;-76
2022/03/24 04:04:04;;;;;;;85.63;48.50;;;;;;;0.96;100.00;102865.75;5026828;28;20044;-76
2022/03/24 04:06:29;;;;;;;95.97;50.95;;;;;;;0.93;100.00;102868.44;5038412;28;20460;-76
2022/03/24 04:08:55;;;;;;;91.25;50.90;;;;;;;0.92;100.00;102869.31;5040031;28;20463;-76
2022/03/24 04:11:21;;;;;;;93.90;50.95;;;;;;;0.91;100.00;102865.03;5056402;28;20037;-76
2022/03/24 04:13:47;;;;;;;91.45;51.58;;;;;;;0.91;100.00;102867.63;5025153;28;20123;-75
2022/03/24 04:16:12;;;;;;;94.00;52.20;;;;;;;0.86;100.00;102870.28;5042175;28;20120;-76
2022/03/24 04:18:43;;;;;;;93.05;51.70;;;;;;;0.83;100.00;102865.19;5023151;28;20549;-75
2022/03/24 04:21:10;;;;;;;92.03;50.63;;;;;;;0.81;100.00;102873.84;5022384;28;20545;-76
2022/03/24 04:23:41;;;;;;;98.55;52.50;;;;;;;0.77;100.00;102873.03;5025904;28;20193;-76
2022/03/24 04:26:07;;;;;;;96.50;53.28;;;;;;;0.70;100.00;102872.34;5036747;28;20037;-76
2022/03/24 04:28:33;;;;;;;101.88;54.08;;;;;;;0.70;100.00;102869.75;5030581;28;20041;-76
2022/03/24 04:31:00;;;;;;;107.97;55.10;;;;;;;0.67;100.00;102861.22;5031922;28;20040;-76
2022/03/24 04:33:25;;;;;;;108.80;58.50;;;;;;;0.70;100.00;102867.16;5041991;28;20028;-76
2022/03/24 04:35:52;;;;;;;105.85;55.90;;;;;;;0.68;100.00;102870.63;5047421;28;20047;-76
2022/03/24 04:38:17;;;;;;;112.00;57.05;;;;;;;0.65;100.00;102865.56;5036976;28;20493;-77
2022/03/24 04:40:43;;;;;;;108.80;55.65;;;;;;;0.58;100.00;102870.84;5034408;28;20103;-76
2022/03/24 04:43:09;;;;;;;111.07;56.33;;;;;;;0.60;100.00;102868.22;5044333;28;20044;-76
2022/03/24 04:45:35;;;;;;;102.00;54.42;;;;;;;0.55;100.00;102873.47;5035928;28;20632;-75
2022/03/24 04:48:01;;;;;;;104.72;54.28;;;;;;;0.49;100.00;102878.78;5061720;28;20032;-77
2022/03/24 04:50:29;;;;;;;102.32;54.00;;;;;;;0.49;100.00;102871.03;5046636;28;20025;-76
2022/03/24 04:52:56;;;;;;;106.88;55.28;;;;;;;0.44;100.00;102869.41;5048699;28;20162;-76
2022/03/24 04:55:22;;;;;;;103.18;54.78;;;;;;;0.47;100.00;102877.06;5035329;28;20995;-76
2022/03/24 04:57:47;;;;;;;119.25;58.85;;;;;;;0.44;100.00;102877.16;5065807;28;20036;-76
2022/03/24 05:00:17;;;;;;;114.25;58.75;;;;;;;0.40;100.00;102873.78;5036043;28;20036;-75
2022/03/24 05:02:44;;;;;;;108.22;57.47;;;;;;;0.40;100.00;102873.78;5029859;28;20033;-76
2022/03/24 05:05:10;;;;;;;109.53;55.78;;;;;;;0.34;100.00;102876.44;5049512;28;20644;-76
2022/03/24 05:07:36;;;;;;;111.63;56.75;;;;;;;0.24;100.00;102875.75;5063436;28;20039;-75
2022/03/24 05:10:06;;;;;;;107.00;56.78;;;;;;;0.24;100.00;102877.50;5036170;28;20502;-77
2022/03/24 05:12:31;;;;;;;113.13;58.40;;;;;;;0.23;100.00;102878.38;5030942;28;20033;-76
2022/03/24 05:14:58;;;;;;;115.10;59.50;;;;;;;0.29;100.00;102878.28;5029806;28;20028;-75
2022/03/24 05:17:24;;;;;;;108.05;59.28;;;;;;;0.31;100.00;102876.53;5035985;28;20144;-76
2022/03/24 05:19:52;;;;;;;109.45;57.97;;;;;;;0.29;100.00;102875.69;5021779;28;20048;-76
2022/03/24 05:22:18;;;;;;;107.85;56.60;;;;;;;0.34;100.00;102873.88;5032187;28;20040;-76
2022/03/24 05:24:44;;;;;;;113.13;57.47;;;;;;;0.32;100.00;102871.34;5045710;28;20045;-74
2022/03/24 05:27:10;;;;;;;121.97;60.88;;;;;;;0.37;100.00;102881.56;5040521;28;20105;-76
2022/03/24 05:29:38;;;;;;;111.78;57.17;;;;;;;0.33;100.00;102877.34;5054621;28;20397;-76
2022/03/24 05:32:05;;;;;;;109.32;58.75;;;;;;;0.35;100.00;102880.75;5059298;28;20108;-75
2022/03/24 05:34:31;;;;;;;108.63;56.88;;;;;;;0.35;100.00;102884.16;5027547;28;20037;-75
2022/03/24 05:36:57;;;;;;;104.00;55.17;;;;;;;0.35;100.00;102880.75;5040783;28;20556;-76
2022/03/24 05:39:23;;;;;;;107.25;56.13;;;;;;;0.37;100.00;102876.41;5049441;28;20157;-74
2022/03/24 05:41:49;;;;;;;109.88;56.83;;;;;;;0.41;100.00;102887.53;5043836;28;20497;-75
2022/03/24 05:44:15;;;;;;;107.18;57.80;;;;;;;0.43;100.00;102886.59;5042321;28;20052;-75
2022/03/24 05:46:45;;;;;;;104.75;54.47;;;;;;;0.44;100.00;102887.47;5056033;28;20115;-75
2022/03/24 05:49:15;;;;;;;103.68;55.28;;;;;;;0.47;100.00;102884.81;5048810;28;20509;-75
2022/03/24 05:52:01;;;;;;;101.93;53.47;;;;;;;0.50;100.00;102892.53;5060229;28;20112;-76
2022/03/24 05:54:27;;;;;;;114.22;58.28;;;;;;;0.56;100.00;102890.66;5050004;28;20036;-75
2022/03/24 05:56:53;;;;;;;120.97;60.38;;;;;;;0.64;100.00;102880.22;5066559;28;20024;-75
2022/03/24 05:59:19;;;;;;;118.05;58.85;;;;;;;0.73;100.00;102881.75;5058861;28;20757;-76
2022/03/24 06:01:46;;;;;;;122.68;60.05;;;;;;;0.77;100.00;102881.66;5026689;28;20032;-76
2022/03/24 06:04:13;;;;;;;107.32;58.22;;;;;;;0.84;100.00;102884.97;5050946;28;20123;-76
2022/03/24 06:06:40;;;;;;;109.88;58.90;;;;;;;0.93;100.00;102891.69;5058968;28;20503;-75
2022/03/24 06:09:06;;;;;;;125.82;63.00;;;;;;;1.00;100.00;102888.09;5063967;28;20551;-75
2022/03/24 06:11:36;;;;;;;125.32;62.75;;;;;;;1.10;100.00;102886.16;5063077;28;20037;-77
2022/03/24 06:14:08;;;;;;;121.88;62.38;;;;;;;1.17;100.00;102891.16;5066532;28;20028;-74
2022/03/24 06:16:34;;;;;;;115.00;60.08;;;;;;;1.27;100.00;102897.00;5050481;28;20033;-76
2022/03/24 06:19:00;;;;;;;119.78;62.10;;;;;;;1.36;100.00;102899.38;5057751;28;20041;-75
2022/03/24 06:21:26;;;;;;;129.32;66.22;;;;;;;1.47;100.00;102906.03;5042473;28;20064;-76
2022/03/24 06:23:53;;;;;;;130.52;64.93;;;;;;;1.57;100.00;102907.53;5043409;28;20174;-75
2022/03/24 06:26:21;;;;;;;115.00;58.72;;;;;;;1.66;100.00;102903.91;5026452;28;20040;-75
2022/03/24 06:28:48;;;;;;;109.63;57.22;;;;;;;1.77;100.00;102906.22;5054273;28;20510;-75
2022/03/24 06:31:14;;;;;;;107.20;57.85;;;;;;;1.91;100.00;102907.59;5048617;28;20036;-75
2022/03/24 06:33:40;;;;;;;101.32;55.90;;;;;;;2.12;100.00;102908.78;5039998;28;20083;-76
2022/03/24 06:36:06;;;;;;;111.38;59.05;;;;;;;2.34;100.00;102901.31;5048749;28;20040;-75
2022/03/24 06:38:32;;;;;;;107.95;58.70;;;;;;;2.59;100.00;102915.38;5068561;28;20222;-76
2022/03/24 06:40:57;;;;;;;105.53;59.03;;;;;;;2.84;100.00;102913.78;5045398;28;20592;-76
2022/03/24 06:43:24;;;;;;;104.68;55.58;;;;;;;3.01;100.00;102910.72;5050189;28;20558;-75
2022/03/24 06:45:51;;;;;;;109.55;57.63;;;;;;;3.17;100.00;102913.72;5055365;28;20036;-74
2022/03/24 06:48:17;;;;;;;106.35;55.28;;;;;;;3.27;100.00;102912.53;5039168;28;20136;-75
2022/03/24 06:50:42;;;;;;;106.20;56.83;;;;;;;3.39;100.00;102916.53;5028781;28;20183;-75
2022/03/24 06:53:08;;;;;;;104.28;57.60;;;;;;;3.53;100.00;102923.03;5056257;28;20039;-75
2022/03/24 06:55:34;;;;;;;104.68;57.10;;;;;;;3.64;100.00;102920.97;5046448;28;20032;-75
2022/03/24 06:58:00;;;;;;;104.88;55.85;;;;;;;3.82;100.00;102920.34;5029933;28;20040;-76
2022/03/24 07:00:26;;;;;;;99.22;54.03;;;;;;;3.93;100.00;102921.78;5018183;28;20040;-76
2022/03/24 07:02:52;;;;;;;99.15;54.30;;;;;;;3.98;100.00;102919.88;5041974;28;20492;-76
2022/03/24 07:05:17;;;;;;;100.88;53.05;;;;;;;4.00;100.00;102920.69;5055361;28;20036;-76
2022/03/24 07:07:44;;;;;;;99.70;54.53;;;;;;;4.14;100.00;102928.00;5042240;28;20040;-75
2022/03/24 07:10:10;;;;;;;93.90;52.70;;;;;;;4.27;100.00;102926.69;5025477;28;20037;-76
2022/03/24 07:12:36;;;;;;;102.38;53.10;;;;;;;4.46;100.00;102937.31;5049865;28;20063;-76
2022/03/24 07:15:08;;;;;;;98.53;54.22;;;;;;;4.53;100.00;102938.78;5049409;28;20499;-76
2022/03/24 07:17:35;;;;;;;93.28;51.72;;;;;;;4.64;100.00;102928.03;5049898;28;20439;-75
2022/03/24 07:20:03;;;;;;;102.30;51.63;;;;;;;4.75;100.00;102927.66;5057020;28;20062;-76
2022/03/24 07:22:33;;;;;;;91.75;49.15;;;;;;;4.77;100.00;102938.84;5048551;28;20028;-75
2022/03/24 07:25:00;;;;;;;89.35;49.05;;;;;;;4.82;100.00;102929.09;5042948;28;20040;-75
2022/03/24 07:27:26;;;;;;;88.60;47.25;;;;;;;4.88;100.00;102934.94;5043190;28;20036;-76
2022/03/24 07:29:52;;;;;;;93.05;48.97;;;;;;;4.99;99.78;102924.16;5046055;28;20543;-76
2022/03/24 07:32:19;;;;;;;90.82;47.45;;;;;;;5.13;99.54;102934.03;5041943;28;20037;-75
2022/03/24 07:34:45;;;;;;;93.68;48.38;;;;;;;5.29;98.42;102930.84;5049795;28;20084;-76
2022/03/24 07:37:11;;;;;;;90.10;44.22;;;;;;;5.43;97.51;102934.63;5070356;28;20512;-76
2022/03/24 07:39:37;;;;;;;82.15;42.65;;;;;;;5.50;96.09;102939.59;5046978;28;20033;-75
2022/03/24 07:42:03;;;;;;;88.93;46.25;;;;;;;5.63;95.82;102935.59;5067246;28;20059;-74
2022/03/24 07:44:28;;;;;;;77.20;40.95;;;;;;;5.72;95.38;102932.63;5048198;28;20397;-76
2022/03/24 07:46:54;;;;;;;85.40;43.40;;;;;;;5.91;94.47;102939.72;5029828;28;20037;-75
2022/03/24 07:49:19;;;;;;;78.13;42.38;;;;;;;5.96;91.78;102941.25;5063596;28;20495;-74
2022/03/24 07:51:45;;;;;;;83.18;42.13;;;;;;;6.11;92.15;102942.38;5051805;28;20037;-77
2022/03/24 07:54:11;;;;;;;73.20;39.72;;;;;;;6.20;90.18;102949.81;5050743;28;20036;-76
2022/03/24 07:56:38;;;;;;;77.28;40.33;;;;;;;6.28;89.33;102943.44;5035677;28;21681;-77
2022/03/24 07:59:05;;;;;;;83.70;42.58;;;;;;;6.31;90.23;102943.28;5048536;28;20041;-76
2022/03/24 08:01:34;;;;;;;75.95;39.60;;;;;;;6.27;89.90;102937.34;5058446;28;20185;-76
2022/03/24 08:04:02;;;;;;;72.90;40.58;;;;;;;6.49;89.67;102950.34;5030201;28;20040;-76
2022/03/24 08:06:29;;;;;;;78.90;40.97;;;;;;;6.47;87.93;102941.75;5050130;28;20511;-77
2022/03/24 08:08:56;;;;;;;83.88;41.17;;;;;;;6.51;87.35;102952.88;5044280;28;20073;-75
2022/03/24 08:11:22;;;;;;;72.95;36.47;;;;;;;6.68;85.24;102950.38;5050526;28;21032;-76
2022/03/24 08:13:52;;;;;;;71.65;39.55;;;;;;;6.84;85.63;102950.56;5031122;28;20157;-77
2022/03/24 08:16:18;;;;;;;72.55;38.42;;;;;;;7.10;84.51;102943.31;5041278;28;20036;-76
2022/03/24 08:18:43;;;;;;;76.65;39.65;;;;;;;7.14;83.42;102955.31;5024992;28;20025;-76
2022/03/24 08:21:09;;;;;;;69.28;37.40;;;;;;;7.17;81.62;102960.41;5041321;28;20044;-75
2022/03/24 08:23:35;;;;;;;67.40;36.60;;;;;;;7.26;80.36;102953.91;5041279;28;20040;-76
2022/03/24 08:26:00;;;;;;;71.05;36.90;;;;;;;7.37;81.33;102957.72;5050485;28;20036;-76
2022/03/24 08:28:26;;;;;;;74.75;37.88;;;;;;;7.54;81.10;102956.94;5066348;28;20047;-76
2022/03/24 08:30:51;;;;;;;67.10;38.15;;;;;;;7.69;78.93;102954.50;5048855;28;20242;-75
2022/03/24 08:33:17;;;;;;;69.47;38.55;;;;;;;7.66;80.59;102952.88;5064169;28;20113;-76
2022/03/24 08:35:43;;;;;;;79.03;37.83;;;;;;;7.71;81.63;102953.50;5032846;28;20067;-76
2022/03/24 08:38:10;;;;;;;72.28;38.50;;;;;;;7.85;81.42;102958.06;5049919;28;20028;-76
2022/03/24 08:40:36;;;;;;;72.72;40.85;;;;;;;8.03;81.91;102958.94;5063666;28;20037;-76
2022/03/24 08:43:03;;;;;;;71.35;39.25;;;;;;;8.18;81.11;102958.19;5047511;28;20032;-77
2022/03/24 08:45:29;;;;;;;74.30;39.42;;;;;;;8.31;80.06;102960.19;5027240;28;20028;-77
2022/03/24 08:47:55;;;;;;;68.50;38.50;;;;;;;8.39;79.67;102963.25;5064469;28;20036;-77
2022/03/24 08:50:22;;;;;;;63.50;37.13;;;;;;;8.39;78.48;102968.47;5046371;28;20036;-76
2022/03/24 08:52:48;;;;;;;64.65;37.30;;;;;;;8.60;76.75;102963.94;5048287;28;20127;-75
2022/03/24 08:55:14;;;;;;;74.00;39.20;;;;;;;8.67;77.69;102964.50;5050742;28;20035;-76
2022/03/24 08:57:42;;;;;;;70.05;37.05;;;;;;;8.74;76.25;102973.72;5027219;28;20045;-76
2022/03/24 09:00:13;;;;;;;66.43;37.10;;;;;;;8.90;75.24;102965.91;5037646;28;20040;-75
2022/03/24 09:02:41;;;;;;;65.25;36.80;;;;;;;9.10;75.59;102962.22;5048458;28;20073;-76
2022/03/24 09:05:08;;;;;;;65.35;37.15;;;;;;;9.23;73.57;102959.75;5042067;28;20036;-75
2022/03/24 09:07:34;;;;;;;63.40;36.33;;;;;;;9.33;72.34;102956.56;5048268;28;20035;-76
2022/03/24 09:10:00;;;;;;;59.15;35.63;;;;;;;9.31;72.98;102955.81;5032721;28;20035;-77
2022/03/24 09:12:25;;;;;;;63.47;35.03;;;;;;;9.58;73.43;102959.63;5020339;28;20033;-77
2022/03/24 09:14:51;;;;;;;62.78;35.05;;;;;;;9.75;71.32;102967.38;5047588;28;20509;-75
2022/03/24 09:17:16;;;;;;;58.17;34.05;;;;;;;9.88;68.95;102964.91;5031110;28;20036;-75
2022/03/24 09:19:42;;;;;;;64.88;35.65;;;;;;;9.97;70.50;102971.41;5069344;28;20127;-77
2022/03/24 09:22:08;;;;;;;61.85;35.15;;;;;;;10.14;70.79;102974.72;5044438;28;20037;-78
2022/03/24 09:24:34;;;;;;;60.80;33.95;;;;;;;10.23;68.03;102975.13;5035700;28;20033;-76
2022/03/24 09:27:00;;;;;;;60.03;32.25;;;;;;;10.28;65.80;102976.56;5061780;28;20031;-76
2022/03/24 09:29:26;;;;;;;58.38;33.42;;;;;;;10.32;66.43;102977.22;5059401;28;20081;-76
2022/03/24 09:31:52;;;;;;;58.20;34.05;;;;;;;10.41;66.32;102973.22;5038265;28;20029;-76
2022/03/24 09:34:18;;;;;;;57.90;32.28;;;;;;;10.65;63.94;102976.19;5069684;28;20177;-77
2022/03/24 09:36:43;;;;;;;65.78;34.58;;;;;;;10.69;63.97;102983.75;5052132;28;20037;-74
2022/03/24 09:39:09;;;;;;;60.72;31.60;;;;;;;10.74;64.71;102978.25;5061317;28;20032;-77
2022/03/24 09:41:36;;;;;;;53.58;31.30;;;;;;;10.85;63.13;102978.44;5043110;28;20461;-76
2022/03/24 09:44:04;;;;;;;52.05;31.40;;;;;;;11.03;61.43;102971.19;5035277;28;20052;-73
2022/03/24 09:46:31;;;;;;;58.22;32.42;;;;;;;11.17;61.63;102978.25;5035316;28;20072;-77
2022/03/24 09:48:58;;;;;;;56.60;31.45;;;;;;;11.15;59.20;102972.25;5057615;28;20059;-76
2022/03/24 09:51:29;;;;;;;61.70;32.20;;;;;;;11.10;59.58;102969.88;5055962;28;20040;-77
2022/03/24 09:53:55;;;;;;;55.92;30.92;;;;;;;11.13;58.82;102971.47;5048720;28;20036;-75
2022/03/24 09:56:20;;;;;;;56.17;30.85;;;;;;;11.16;59.20;102967.81;5055017;28;20516;-74
2022/03/24 09:58:49;;;;;;;57.70;31.80;;;;;;;11.33;61.46;102977.28;5035453;28;20040;-77
2022/03/24 10:01:17;;;;;;;59.83;32.05;;;;;;;11.44;60.33;102970.38;5046978;28;20041;-77
2022/03/24 10:04:14;;;;;;;53.22;31.33;;;;;;;11.60;60.63;102967.63;5052238;28;20527;-76
2022/03/24 10:06:58;;;;;;;65.53;33.78;;;;;;;11.78;58.71;102970.84;5054585;28;20036;-76
2022/03/24 10:09:59;;;;;;;56.38;30.42;;;;;;;11.87;57.07;102970.25;5069131;28;20033;-77
2022/03/24 10:12:34;;;;;;;57.40;31.02;;;;;;;11.95;56.90;102968.94;5038845;28;20048;-75
2022/03/24 10:15:13;;;;;;;49.30;28.75;;;;;;;12.16;56.18;102974.56;5047220;28;20036;-75
2022/03/24 10:17:48;;;;;;;53.28;30.08;;;;;;;12.19;54.47;102974.38;5024659;28;20056;-76
2022/03/24 10:20:17;;;;;;;51.22;28.20;;;;;;;12.17;54.67;102971.81;5063933;28;20033;-74
2022/03/24 10:22:57;;;;;;;57.35;29.00;;;;;;;12.39;56.39;102978.25;5023745;28;20033;-76
2022/03/24 10:25:26;;;;;;;53.65;29.50;;;;;;;12.40;53.42;102972.91;5044442;28;20095;-77
2022/03/24 10:28:13;;;;;;;54.63;28.42;;;;;;;12.41;52.10;102979.88;5031811;28;20055;-78
2022/03/24 10:30:58;;;;;;;53.55;28.40;;;;;;;12.38;51.95;102971.34;5046577;28;20029;-77
2022/03/24 10:33:32;;;;;;;46.53;24.98;;;;;;;12.44;48.46;102977.00;5064366;28;20040;-77
2022/03/24 10:36:09;;;;;;;51.75;26.40;;;;;;;12.46;50.27;102975.09;5052384;28;20070;-77
2022/03/24 10:38:37;;;;;;;48.20;26.23;;;;;;;12.77;50.60;102970.41;5074255;28;20036;-76
2022/03/24 10:41:23;;;;;;;49.85;25.88;;;;;;;13.13;48.69;102974.03;5063719;28;20029;-76
2022/03/24 10:43:50;;;;;;;45.30;25.58;;;;;;;13.16;48.18;102975.59;5071898;28;20032;-76
2022/03/24 10:46:25;;;;;;;46.05;25.17;;;;;;;12.99;48.06;102977.63;5037750;28;20092;-76
2022/03/24 10:48:52;;;;;;;45.70;24.83;;;;;;;13.09;47.60;102974.34;5038097;28;20041;-77
2022/03/24 10:51:23;;;;;;;51.70;26.15;;;;;;;13.35;48.01;102956.69;5064289;28;20036;-76
2022/03/24 10:53:49;;;;;;;43.75;23.38;;;;;;;13.43;45.84;102959.63;5051227;28;20572;-77
2022/03/24 10:56:57;;;;;;;46.15;24.52;;;;;;;13.54;46.90;102959.69;5048007;28;20044;-76
2022/03/24 10:59:26;;;;;;;46.88;23.95;;;;;;;13.61;46.09;102960.06;5032032;28;20135;-77
2022/03/24 11:01:53;;;;;;;50.83;25.75;;;;;;;13.72;47.11;102957.50;5027235;28;20119;-75
2022/03/24 11:04:19;;;;;;;44.33;25.40;;;;;;;13.78;46.00;102961.47;5031632;28;20048;-77
2022/03/24 11:06:52;;;;;;;45.05;26.17;;;;;;;13.81;47.12;102958.63;5032732;28;20039;-76
2022/03/24 11:09:29;;;;;;;49.92;27.10;;;;;;;13.87;47.19;102958.16;5034988;28;20028;-77
2022/03/24 11:12:25;;;;;;;46.78;26.13;;;;;;;13.98;46.47;102954.72;5044103;28;20553;-76